KAWO/AWO METAR and TAF weather

Enter ICAO airport designator
Station Type Date Time Source
KAWO METAR 2018/04/21 10:56 UTC NOAA

KAWO 211056Z AUTO 17011G19KT 10SM OVC028 09/04 A3019 RMK AO2 RAE18 SLP228 P0000 T00890044


Station Type Date Time Source
KAWO Decoded METAR 2018/04/21 10:56 UTC NOAA

Arlington Municipal, WA, United States (KAWO) 48-10N 122-10W
Apr 21, 2018 - 06:56 AM EDT / 2018.04.21 1056 UTC
Wind: from the S (170 degrees) at 13 MPH (11 KT) gusting to 22 MPH (19 KT):0
Visibility: 10 mile(s):0
Sky conditions: overcast
Precipitation last hour: A trace
Temperature: 48.0 F (8.9 C)
Dew Point: 39.9 F (4.4 C)
Relative Humidity: 73%
Pressure (altimeter): 30.19 in. Hg (1022 hPa)
ob: KAWO 211056Z AUTO 17011G19KT 10SM OVC028 09/04 A3019 RMK AO2 RAE18 SLP228 P0000 T00890044
cycle: 11

Station Type Date Time Source
KAWO TAF UTC NOAA

Error!


Example: see airport list